createdAt,value
2019-04-11T00:01:35.924Z,67.60
2019-04-11T00:05:39.181Z,67.90
2019-04-11T00:09:49.615Z,68.10
2019-04-11T00:13:59.993Z,68.30
2019-04-11T00:18:10.512Z,68.70
2019-04-11T00:22:21.534Z,68.80
2019-04-11T00:26:32.756Z,69.00
2019-04-11T00:30:44.105Z,69.20
2019-04-11T00:34:55.305Z,69.40
2019-04-11T00:39:08.009Z,70.40
2019-04-11T00:43:28.563Z,69.70
2019-04-11T00:47:31.174Z,69.70
2019-04-11T00:51:42.321Z,69.90
2019-04-11T00:55:53.521Z,69.90
2019-04-11T01:00:07.309Z,69.90
2019-04-11T01:04:18.424Z,69.90
2019-04-11T01:08:29.412Z,70.00
2019-04-11T01:12:40.696Z,70.20
2019-04-11T01:16:57.014Z,70.70
2019-04-11T01:21:08.237Z,72.10
2019-04-11T01:25:18.713Z,72.20
2019-04-11T01:29:28.981Z,72.60
2019-04-11T01:33:40.205Z,73.10
2019-04-11T01:37:50.793Z,73.10
2019-04-11T01:42:02.803Z,73.20
2019-04-11T01:46:14.034Z,73.40
2019-04-11T01:50:27.828Z,73.80
2019-04-11T01:54:39.536Z,73.60
2019-04-11T01:58:53.106Z,74.00
2019-04-11T02:03:06.617Z,73.60
2019-04-11T02:07:18.539Z,74.20
2019-04-11T02:11:29.746Z,74.40
2019-04-11T02:15:40.806Z,74.70
2019-04-11T02:19:52.242Z,75.00
2019-04-11T02:24:07.848Z,75.40
2019-04-11T02:28:20.272Z,75.50
2019-04-11T02:32:31.896Z,76.10
2019-04-11T02:36:42.916Z,76.30
2019-04-11T02:40:57.839Z,76.60
2019-04-11T02:45:21.851Z,77.00
2019-04-11T02:49:21.574Z,77.30
2019-04-11T02:53:34.399Z,77.50
2019-04-11T02:57:45.961Z,77.70
2019-04-11T03:01:58.135Z,77.90
2019-04-11T03:06:09.640Z,78.00
2019-04-11T03:10:21.414Z,78.00
2019-04-11T03:14:46.533Z,78.00
2019-04-11T03:18:59.247Z,78.20
2019-04-11T03:23:00.398Z,78.50
2019-04-11T03:27:09.898Z,79.00
2019-04-11T03:32:04.681Z,79.20
2019-04-11T03:36:27.381Z,79.30
2019-04-11T03:40:07.926Z,79.60
2019-04-11T03:44:04.366Z,79.60
2019-04-11T03:48:23.525Z,79.90
2019-04-11T03:52:23.755Z,80.00
2019-04-11T03:56:35.153Z,80.30
2019-04-11T04:00:50.530Z,80.30
2019-04-11T04:05:01.408Z,80.40
2019-04-11T04:09:13.169Z,80.50
2019-04-11T04:13:26.227Z,80.80
2019-04-11T04:17:41.315Z,80.80
2019-04-11T04:21:57.482Z,80.90
2019-04-11T04:26:11.583Z,81.10
2019-04-11T04:30:21.932Z,81.10
2019-04-11T04:34:33.786Z,81.20
2019-04-11T04:38:46.357Z,81.20
2019-04-11T04:42:59.124Z,81.10
2019-04-11T04:47:19.705Z,80.20
2019-04-11T04:51:24.233Z,78.80
2019-04-11T04:55:34.851Z,77.70
2019-04-11T04:59:46.805Z,76.10
2019-04-11T05:03:58.322Z,74.70
2019-04-11T05:08:10.554Z,73.70
2019-04-11T05:12:22.473Z,71.90
2019-04-11T05:16:33.323Z,70.90
2019-04-11T05:20:44.224Z,69.10
2019-04-11T05:24:55.899Z,68.20
2019-04-11T05:29:06.950Z,66.50
2019-04-11T05:33:17.960Z,65.90
2019-04-11T05:37:29.227Z,65.00
2019-04-11T05:41:42.105Z,64.10
2019-04-11T05:45:54.379Z,63.60
2019-04-11T05:50:10.039Z,63.80
2019-04-11T05:54:20.428Z,63.10
2019-04-11T05:58:32.542Z,63.10
2019-04-11T06:02:45.666Z,62.60
2019-04-11T06:07:07.844Z,62.30
2019-04-11T06:11:26.481Z,61.30
2019-04-11T06:15:42.838Z,60.90
2019-04-11T06:19:56.153Z,60.10
2019-04-11T06:24:18.201Z,60.10
2019-04-11T06:28:30.738Z,59.20
2019-04-11T06:33:00.375Z,58.40
2019-04-11T06:37:13.806Z,57.90
2019-04-11T06:41:28.561Z,58.10
2019-04-11T06:45:57.267Z,57.50
2019-04-11T06:50:13.116Z,55.70
2019-04-11T06:54:37.128Z,55.10
2019-04-11T06:58:52.467Z,54.70
2019-04-11T07:03:05.494Z,55.50
2019-04-11T07:07:18.427Z,55.60
2019-04-11T07:11:30.547Z,55.30
2019-04-11T07:15:42.497Z,55.50
2019-04-11T07:20:00.373Z,54.20
2019-04-11T07:24:28.868Z,54.10
2019-04-11T07:28:43.707Z,53.90
2019-04-11T07:32:55.851Z,53.90
2019-04-11T07:37:25.971Z,53.70
2019-04-11T07:41:39.978Z,52.90
2019-04-11T07:45:56.611Z,51.90
2019-04-11T07:50:10.086Z,52.30
2019-04-11T07:54:20.572Z,53.00
2019-04-11T07:58:33.927Z,51.70
2019-04-11T08:03:04.008Z,52.00
2019-04-11T08:07:28.173Z,51.30
2019-04-11T08:11:40.244Z,51.40
2019-04-11T08:15:57.996Z,51.30
2019-04-11T08:20:26.781Z,50.10
2019-04-11T08:24:42.654Z,49.80
2019-04-11T08:29:05.319Z,49.80
2019-04-11T08:33:08.797Z,48.10
2019-04-11T08:37:36.094Z,48.10
2019-04-11T08:41:57.291Z,49.90
2019-04-11T08:46:10.950Z,49.20
2019-04-11T08:50:26.234Z,48.50
2019-04-11T08:54:39.717Z,47.10
2019-04-11T08:59:18.643Z,46.20
2019-04-11T09:03:56.702Z,46.20
2019-04-11T09:08:14.233Z,47.00
2019-04-11T09:12:24.778Z,48.30
2019-04-11T09:16:54.793Z,49.00
2019-04-11T09:21:08.416Z,47.70
2019-04-11T09:25:27.421Z,49.50
2019-04-11T09:29:42.038Z,47.80
2019-04-11T09:33:55.445Z,47.70
2019-04-11T09:38:08.473Z,50.00
2019-04-11T09:42:38.773Z,48.60
2019-04-11T09:46:54.865Z,48.50
2019-04-11T09:51:17.883Z,51.10
2019-04-11T09:55:45.756Z,51.90
2019-04-11T10:00:01.838Z,51.80
2019-04-11T10:04:15.052Z,51.20
2019-04-11T10:08:27.021Z,52.30
2019-04-11T10:12:42.555Z,50.80
2019-04-11T10:16:58.172Z,51.10
2019-04-11T10:21:10.270Z,52.00
2019-04-11T10:25:25.319Z,51.60
2019-04-11T10:29:38.156Z,51.70
2019-04-11T10:33:50.997Z,51.90
2019-04-11T10:38:02.297Z,51.80
2019-04-11T10:42:14.803Z,51.00
2019-04-11T10:46:33.489Z,50.80
2019-04-11T10:51:01.741Z,50.80
2019-04-11T10:55:13.955Z,49.50
2019-04-11T10:59:27.931Z,49.60
2019-04-11T11:03:47.396Z,49.10
2019-04-11T11:07:59.371Z,47.30
2019-04-11T11:12:13.773Z,46.70
2019-04-11T11:16:27.972Z,47.60
2019-04-11T11:20:55.226Z,48.30
2019-04-11T11:25:24.684Z,48.10
2019-04-11T11:29:54.051Z,47.70
2019-04-11T11:34:07.126Z,45.00
2019-04-11T11:38:19.990Z,42.90
2019-04-11T11:42:42.094Z,44.60
2019-04-11T11:47:10.403Z,46.10
2019-04-11T11:51:23.881Z,46.40
2019-04-11T11:55:39.237Z,48.10
2019-04-11T11:59:52.364Z,48.00
2019-04-11T12:04:23.872Z,48.50
2019-04-11T12:08:51.314Z,47.80
2019-04-11T12:13:07.981Z,49.40
2019-04-11T12:17:31.776Z,49.90
2019-04-11T12:21:41.458Z,50.50
2019-04-11T12:25:51.762Z,50.00
2019-04-11T12:30:05.872Z,50.10
2019-04-11T12:34:24.067Z,49.30
2019-04-11T12:38:54.631Z,48.70
2019-04-11T12:43:05.751Z,49.40
2019-04-11T12:47:20.831Z,49.50
2019-04-11T12:51:49.468Z,49.70
2019-04-11T12:56:18.390Z,49.40
2019-04-11T13:00:30.296Z,49.80
2019-04-11T13:04:44.280Z,49.80
2019-04-11T13:08:57.812Z,48.70
2019-04-11T13:13:28.491Z,48.50
2019-04-11T13:17:42.971Z,47.70
2019-04-11T13:21:58.237Z,47.40
2019-04-11T13:26:25.266Z,47.10
2019-04-11T13:30:49.424Z,47.30
2019-04-11T13:35:17.728Z,47.80
2019-04-11T13:39:28.458Z,48.50
2019-04-11T13:43:43.227Z,48.10
2019-04-11T13:48:11.209Z,48.50
2019-04-11T13:52:38.575Z,48.30
2019-04-11T13:57:06.225Z,48.00
2019-04-11T14:01:16.623Z,47.70
2019-04-11T14:05:28.600Z,47.70
2019-04-11T14:09:50.104Z,47.00
2019-04-11T14:14:03.071Z,47.50
2019-04-11T14:18:15.709Z,48.10
2019-04-11T14:22:29.213Z,49.10
2019-04-11T14:26:41.617Z,49.80
2019-04-11T14:30:59.192Z,49.80
2019-04-11T14:35:15.088Z,49.80
2019-04-11T14:39:27.562Z,49.80
2019-04-11T14:43:39.456Z,49.50
2019-04-11T14:48:07.987Z,49.10
2019-04-11T14:52:21.382Z,48.80
2019-04-11T14:56:36.090Z,48.60
2019-04-11T15:00:53.725Z,49.50
2019-04-11T15:05:06.330Z,50.20
2019-04-11T15:09:34.620Z,49.80
2019-04-11T15:13:48.106Z,49.90
2019-04-11T15:18:07.392Z,49.70
2019-04-11T15:22:28.208Z,49.50
2019-04-11T15:26:40.185Z,49.10
2019-04-11T15:31:07.840Z,48.20
2019-04-11T15:35:18.138Z,47.80
2019-04-11T15:39:46.646Z,48.10
2019-04-11T15:44:04.564Z,47.90
2019-04-11T15:48:17.794Z,48.70
2019-04-11T15:52:28.631Z,48.70
2019-04-11T15:56:41.914Z,48.70
2019-04-11T16:00:57.823Z,48.40
2019-04-11T16:05:15.277Z,48.70
2019-04-11T16:09:26.181Z,48.60
2019-04-11T16:13:44.784Z,48.50
2019-04-11T16:18:02.285Z,49.00
2019-04-11T16:22:20.472Z,49.50
2019-04-11T16:26:35.459Z,49.70
2019-04-11T16:30:47.431Z,49.40
2019-04-11T16:35:05.385Z,48.20
2019-04-11T16:39:33.083Z,47.90
2019-04-11T16:43:45.231Z,47.80
2019-04-11T16:47:57.794Z,47.60
2019-04-11T16:52:08.582Z,47.10
2019-04-11T16:56:20.062Z,47.00
2019-04-11T17:00:30.520Z,47.60
2019-04-11T17:04:40.962Z,48.00
2019-04-11T17:08:56.442Z,48.30
2019-04-11T17:13:06.974Z,49.00
2019-04-11T17:17:17.209Z,49.10
2019-04-11T17:21:28.402Z,49.50
2019-04-11T17:25:38.848Z,50.00
2019-04-11T17:29:49.167Z,50.30
2019-04-11T17:34:01.803Z,50.80
2019-04-11T17:38:11.650Z,50.90
2019-04-11T17:42:21.984Z,50.70
2019-04-11T17:46:34.982Z,51.60
2019-04-11T17:50:45.346Z,51.80
2019-04-11T17:54:55.877Z,52.30
2019-04-11T17:59:06.247Z,52.70
2019-04-11T18:03:17.934Z,53.20
2019-04-11T18:07:28.407Z,53.60
2019-04-11T18:11:38.894Z,54.10
2019-04-11T18:15:49.289Z,54.80
2019-04-11T18:20:00.049Z,54.30
2019-04-11T18:24:12.774Z,54.50
2019-04-11T18:28:23.294Z,54.50
2019-04-11T18:32:33.587Z,54.60
2019-04-11T18:36:43.967Z,54.60
2019-04-11T18:40:56.731Z,55.00
2019-04-11T18:45:09.615Z,54.70
2019-04-11T18:49:23.060Z,54.80
2019-04-11T18:53:33.417Z,55.00
2019-04-11T18:57:43.908Z,55.20
2019-04-11T19:01:54.411Z,55.40
2019-04-11T19:06:04.951Z,55.50
2019-04-11T19:10:16.348Z,55.50
2019-04-11T19:14:26.688Z,55.50
2019-04-11T19:18:38.875Z,55.60
2019-04-11T19:22:49.779Z,55.90
2019-04-11T19:27:01.708Z,56.00
2019-04-11T19:31:14.020Z,55.90
2019-04-11T19:35:24.366Z,56.00
2019-04-11T19:39:34.858Z,56.20
2019-04-11T19:43:48.649Z,55.70
2019-04-11T19:47:57.808Z,55.30
2019-04-11T19:52:08.199Z,54.30
2019-04-11T19:56:23.598Z,53.90
2019-04-11T20:00:35.987Z,54.20
2019-04-11T20:04:46.729Z,53.30
2019-04-11T20:08:58.905Z,52.80
2019-04-11T20:13:09.222Z,52.70
2019-04-11T20:17:19.954Z,52.90
2019-04-11T20:21:32.086Z,52.50
2019-04-11T20:25:45.744Z,52.30
2019-04-11T20:29:55.689Z,52.10
2019-04-11T20:34:07.307Z,52.20
2019-04-11T20:38:22.446Z,52.60
2019-04-11T20:42:32.704Z,52.80
2019-04-11T20:46:43.163Z,52.50
2019-04-11T20:50:55.005Z,53.10
2019-04-11T20:55:09.172Z,53.30
2019-04-11T20:59:19.004Z,53.50
2019-04-11T21:03:31.541Z,53.70
2019-04-11T21:07:41.944Z,53.90
2019-04-11T21:11:52.221Z,54.00
2019-04-11T21:16:04.082Z,54.10
2019-04-11T21:20:17.080Z,54.20
2019-04-11T21:24:30.571Z,54.40
2019-04-11T21:28:39.332Z,54.20
2019-04-11T21:32:50.804Z,54.70
2019-04-11T21:37:02.565Z,54.70
2019-04-11T21:41:13.229Z,54.80
2019-04-11T21:45:23.642Z,54.70
2019-04-11T21:49:36.638Z,54.70
2019-04-11T21:53:46.103Z,55.60
2019-04-11T21:57:57.108Z,56.00
2019-04-11T22:02:09.801Z,55.50
2019-04-11T22:06:20.223Z,55.90
2019-04-11T22:10:30.647Z,56.00
2019-04-11T22:14:42.608Z,56.30
2019-04-11T22:18:52.851Z,56.60
2019-04-11T22:23:03.384Z,56.80
2019-04-11T22:27:13.692Z,57.50
2019-04-11T22:31:25.122Z,58.30
2019-04-11T22:35:36.598Z,59.10
2019-04-11T22:39:50.348Z,59.80
2019-04-11T22:44:01.449Z,60.30
2019-04-11T22:48:11.687Z,61.10
2019-04-11T22:52:22.307Z,61.60
2019-04-11T22:56:32.709Z,62.10
2019-04-11T23:00:45.779Z,62.60
2019-04-11T23:04:57.488Z,63.00
2019-04-11T23:09:12.208Z,63.20
2019-04-11T23:13:22.595Z,63.40
2019-04-11T23:17:34.248Z,63.80
2019-04-11T23:21:44.683Z,64.20
2019-04-11T23:25:55.001Z,64.70
2019-04-11T23:30:07.466Z,65.00
2019-04-11T23:34:19.767Z,65.90
2019-04-11T23:38:29.789Z,65.70
2019-04-11T23:42:40.024Z,65.90
2019-04-11T23:46:51.991Z,67.30
2019-04-11T23:51:02.280Z,66.70
2019-04-11T23:55:12.571Z,67.40
2019-04-11T23:59:23.744Z,67.60
